createdAt,value
2019-04-27T00:00:40.179Z,100959.17
2019-04-27T00:05:53.557Z,100958.74
2019-04-27T00:11:08.696Z,100948.38
2019-04-27T00:16:50.887Z,100950.39
2019-04-27T00:22:03.171Z,100943.95
2019-04-27T00:27:08.714Z,100948.30
2019-04-27T00:32:14.430Z,100946.12
2019-04-27T00:37:42.702Z,100935.91
2019-04-27T00:42:48.868Z,100930.34
2019-04-27T00:47:59.308Z,100923.67
2019-04-27T00:53:03.250Z,100921.67
2019-04-27T00:58:26.541Z,100919.20
2019-04-27T01:03:43.132Z,100919.33
2019-04-27T01:08:48.543Z,100909.02
2019-04-27T01:13:54.028Z,100900.38
2019-04-27T01:18:59.586Z,100893.88
2019-04-27T01:24:05.086Z,100893.86
2019-04-27T01:29:13.823Z,100890.41
2019-04-27T01:34:19.634Z,100878.76
2019-04-27T01:39:25.300Z,100875.39
2019-04-27T01:44:30.732Z,100880.17
2019-04-27T01:49:36.272Z,100874.52
2019-04-27T01:54:42.069Z,100871.31
2019-04-27T01:59:48.931Z,100869.31
2019-04-27T02:05:16.175Z,100869.24
2019-04-27T02:10:21.704Z,100872.02
2019-04-27T02:15:27.203Z,100865.39
2019-04-27T02:20:32.646Z,100861.05
2019-04-27T02:25:39.636Z,100856.63
2019-04-27T02:31:02.504Z,100857.02
2019-04-27T02:36:14.009Z,100852.90
2019-04-27T02:41:15.164Z,100844.64
2019-04-27T02:46:20.723Z,100838.59
2019-04-27T02:51:45.051Z,100832.39
2019-04-27T02:56:52.798Z,100830.19
2019-04-27T03:02:12.194Z,100824.36
2019-04-27T03:07:19.867Z,100818.39
2019-04-27T03:12:29.574Z,100811.91
2019-04-27T03:17:51.720Z,100803.51
2019-04-27T03:23:00.232Z,100801.66
2019-04-27T03:28:10.654Z,100795.34
2019-04-27T03:33:16.343Z,100781.11
2019-04-27T03:38:21.797Z,100778.83
2019-04-27T03:43:30.026Z,100771.98
2019-04-27T03:48:34.589Z,100769.91
2019-04-27T03:53:57.442Z,100755.22
2019-04-27T03:59:06.074Z,100750.70
2019-04-27T04:04:11.604Z,100747.70
2019-04-27T04:09:17.106Z,100743.64
2019-04-27T04:14:23.289Z,100735.56
2019-04-27T04:19:31.535Z,100735.11
2019-04-27T04:24:35.961Z,100745.44
2019-04-27T04:29:41.373Z,100744.50
2019-04-27T04:34:46.844Z,100737.91
2019-04-27T04:39:53.561Z,100742.65
2019-04-27T04:45:20.293Z,100747.23
2019-04-27T04:50:25.647Z,100749.02
2019-04-27T04:55:31.113Z,100746.83
2019-04-27T05:00:36.560Z,100744.55
2019-04-27T05:05:41.963Z,100748.20
2019-04-27T05:10:49.483Z,100744.99
2019-04-27T05:15:54.550Z,100740.64
2019-04-27T05:21:15.618Z,100733.12
2019-04-27T05:26:21.073Z,100734.98
2019-04-27T05:31:26.470Z,100733.28
2019-04-27T05:36:31.963Z,100735.17
2019-04-27T05:41:39.305Z,100725.36
2019-04-27T05:47:05.408Z,100726.67
2019-04-27T05:52:30.529Z,100727.81
2019-04-27T05:57:36.071Z,100720.28
2019-04-27T06:02:41.592Z,100720.52
2019-04-27T06:07:48.715Z,100715.49
2019-04-27T06:12:54.297Z,100721.48
2019-04-27T06:17:59.978Z,100718.19
2019-04-27T06:23:05.409Z,100714.63
2019-04-27T06:28:10.870Z,100717.60
2019-04-27T06:33:27.996Z,100715.84
2019-04-27T06:38:23.610Z,100716.64
2019-04-27T06:43:29.476Z,100713.56
2019-04-27T06:48:35.017Z,100712.72
2019-04-27T06:53:40.793Z,100712.89
2019-04-27T06:58:46.338Z,100708.41
2019-04-27T07:03:51.752Z,100703.30
2019-04-27T07:08:57.238Z,100701.98
2019-04-27T07:14:02.678Z,100701.67
2019-04-27T07:19:09.434Z,100700.28
2019-04-27T07:24:15.063Z,100697.32
2019-04-27T07:29:23.116Z,100687.87
2019-04-27T07:34:28.618Z,100696.70
2019-04-27T07:39:34.904Z,100698.41
2019-04-27T07:44:49.806Z,100689.28
2019-04-27T07:49:55.513Z,100690.16
2019-04-27T07:55:00.975Z,100688.80
2019-04-27T08:00:07.018Z,100683.98
2019-04-27T08:05:12.468Z,100681.02
2019-04-27T08:10:19.322Z,100674.06
2019-04-27T08:15:24.967Z,100669.66
2019-04-27T08:20:30.398Z,100667.89
2019-04-27T08:25:36.112Z,100665.79
2019-04-27T08:31:12.414Z,100668.62
2019-04-27T08:36:19.050Z,100665.42
2019-04-27T08:41:24.606Z,100664.14
2019-04-27T08:46:30.036Z,100656.67
2019-04-27T08:51:35.568Z,100657.91
2019-04-27T08:56:41.072Z,100653.53
2019-04-27T09:01:46.566Z,100650.36
2019-04-27T09:06:56.261Z,100640.07
2019-04-27T09:12:19.701Z,100632.64
2019-04-27T09:17:37.536Z,100621.44
2019-04-27T09:22:42.942Z,100630.42
2019-04-27T09:27:49.262Z,100623.23
2019-04-27T09:32:55.113Z,100620.98
2019-04-27T09:38:00.645Z,100678.06
2019-04-27T09:43:07.496Z,100693.70
2019-04-27T09:48:13.170Z,100692.86
2019-04-27T09:53:18.819Z,100698.13
2019-04-27T09:58:25.764Z,100701.14
2019-04-27T10:03:31.451Z,100694.33
2019-04-27T10:08:36.874Z,100699.51
2019-04-27T10:13:42.342Z,100694.80
2019-04-27T10:18:47.831Z,100691.41
2019-04-27T10:23:53.386Z,100681.39
2019-04-27T10:28:59.044Z,100674.49
2019-04-27T10:34:05.996Z,100672.14
2019-04-27T10:39:13.513Z,100665.70
2019-04-27T10:44:19.303Z,100669.71
2019-04-27T10:49:25.026Z,100679.49
2019-04-27T10:54:30.480Z,100677.75
2019-04-27T10:59:36.212Z,100683.88
2019-04-27T11:04:58.796Z,100680.80
2019-04-27T11:10:07.582Z,100695.72
2019-04-27T11:15:13.331Z,100700.67
2019-04-27T11:20:18.750Z,100714.28
2019-04-27T11:25:26.437Z,100723.50
2019-04-27T11:30:32.157Z,100735.11
2019-04-27T11:35:53.183Z,100729.55
2019-04-27T11:40:58.801Z,100732.68
2019-04-27T11:46:06.188Z,100729.80
2019-04-27T11:51:12.113Z,100728.75
2019-04-27T11:56:17.813Z,100728.96
2019-04-27T12:01:23.528Z,100731.87
2019-04-27T12:06:29.141Z,100713.78
2019-04-27T12:11:36.287Z,100697.72
2019-04-27T12:16:41.775Z,100684.10
2019-04-27T12:21:47.385Z,100680.75
2019-04-27T12:27:10.236Z,100689.78
2019-04-27T12:32:16.093Z,100698.95
2019-04-27T12:37:21.584Z,100695.48
2019-04-27T12:42:27.175Z,100695.43
2019-04-27T12:47:32.722Z,100704.58
2019-04-27T12:52:38.513Z,100700.80
2019-04-27T12:58:06.332Z,100694.27
2019-04-27T13:03:11.908Z,100686.36
2019-04-27T13:08:17.320Z,100675.09
2019-04-27T13:13:22.963Z,100673.82
2019-04-27T13:18:28.395Z,100661.41
2019-04-27T13:23:33.809Z,100651.97
2019-04-27T13:28:39.304Z,100659.95
2019-04-27T13:33:46.470Z,100652.54
2019-04-27T13:38:51.750Z,100640.49
2019-04-27T13:43:57.598Z,100636.36
2019-04-27T13:49:10.852Z,100637.37
2019-04-27T13:54:23.698Z,100631.44
2019-04-27T13:59:23.554Z,100627.70
2019-04-27T14:04:29.253Z,100626.45
2019-04-27T14:09:34.735Z,100670.30
2019-04-27T14:14:40.175Z,100689.59
2019-04-27T14:19:45.797Z,100668.63
2019-04-27T14:24:51.593Z,100671.96
2019-04-27T14:29:59.000Z,100664.62
2019-04-27T14:35:04.497Z,100666.19
2019-04-27T14:40:10.132Z,100652.89
2019-04-27T14:45:15.570Z,100637.97
2019-04-27T14:50:21.341Z,100623.56
2019-04-27T14:55:28.238Z,100619.16
2019-04-27T15:00:33.989Z,100619.77
2019-04-27T15:05:39.488Z,100621.46
2019-04-27T15:10:46.440Z,100628.72
2019-04-27T15:15:52.092Z,100644.42
2019-04-27T15:20:58.541Z,100668.04
2019-04-27T15:26:04.825Z,100679.97
2019-04-27T15:31:29.552Z,100675.06
2019-04-27T15:36:56.898Z,100670.98
2019-04-27T15:42:07.837Z,100663.16
2019-04-27T15:47:11.962Z,100663.77
2019-04-27T15:52:17.991Z,100663.28
2019-04-27T15:57:23.480Z,100681.58
2019-04-27T16:02:29.025Z,100686.13
2019-04-27T16:07:34.549Z,100688.98
2019-04-27T16:12:54.565Z,100685.45
2019-04-27T16:17:53.382Z,100706.00
2019-04-27T16:22:56.818Z,100712.28
2019-04-27T16:28:04.613Z,100734.42
2019-04-27T16:33:09.475Z,100751.78
2019-04-27T16:38:33.602Z,100775.41
2019-04-27T16:43:34.399Z,100780.47
2019-04-27T16:48:40.240Z,100778.17
2019-04-27T16:53:45.675Z,100780.33
2019-04-27T16:58:56.791Z,100793.07
2019-04-27T17:03:59.276Z,100791.64
2019-04-27T17:09:09.410Z,100790.50
2019-04-27T17:14:26.742Z,100795.83
2019-04-27T17:19:35.803Z,100796.22
2019-04-27T17:24:43.996Z,100807.30
2019-04-27T17:29:50.192Z,100818.34
2019-04-27T17:34:55.635Z,100828.22
2019-04-27T17:40:01.481Z,100827.04
2019-04-27T17:45:08.898Z,100832.92
2019-04-27T17:50:18.408Z,100840.56
2019-04-27T17:55:24.330Z,100832.14
2019-04-27T18:00:32.964Z,100836.74
2019-04-27T18:05:36.164Z,100838.33
2019-04-27T18:10:41.606Z,100848.32
2019-04-27T18:15:50.668Z,100849.19
2019-04-27T18:20:54.404Z,100881.39
2019-04-27T18:26:08.039Z,100898.02
2019-04-27T18:31:16.234Z,100924.13
2019-04-27T18:36:22.824Z,100911.48
2019-04-27T18:41:28.754Z,100915.28
2019-04-27T18:46:34.264Z,100926.03
2019-04-27T18:51:48.429Z,100928.34
2019-04-27T18:57:02.007Z,100949.66
2019-04-27T19:02:01.049Z,100956.88
2019-04-27T19:07:06.458Z,100953.22
2019-04-27T19:12:11.968Z,100963.82
2019-04-27T19:17:18.073Z,100965.17
2019-04-27T19:22:24.636Z,100964.88
2019-04-27T19:27:58.283Z,100967.92
2019-04-27T19:33:03.984Z,100975.59
2019-04-27T19:38:09.506Z,100990.61
2019-04-27T19:43:14.917Z,100996.55
2019-04-27T19:48:20.375Z,100996.45
2019-04-27T19:53:25.831Z,101006.31
2019-04-27T19:58:35.406Z,101008.48
2019-04-27T20:03:50.432Z,101008.12
2019-04-27T20:08:58.277Z,101015.30
2019-04-27T20:14:03.801Z,101012.78
2019-04-27T20:19:09.388Z,101020.41
2019-04-27T20:24:14.832Z,101019.64
2019-04-27T20:29:21.777Z,101020.98
2019-04-27T20:34:27.399Z,101017.80
2019-04-27T20:39:32.834Z,101018.56
2019-04-27T20:44:38.289Z,101023.06
2019-04-27T20:49:43.753Z,101025.09
2019-04-27T20:54:51.366Z,101024.22
2019-04-27T20:59:56.471Z,101025.56
2019-04-27T21:05:21.141Z,101024.05
2019-04-27T21:10:26.705Z,101020.36
2019-04-27T21:15:32.285Z,101029.27
2019-04-27T21:20:37.780Z,101029.97
2019-04-27T21:25:43.278Z,101029.67
2019-04-27T21:30:48.721Z,101036.41
2019-04-27T21:35:54.149Z,101039.95
2019-04-27T21:40:59.561Z,101051.02
2019-04-27T21:46:05.075Z,101050.06
2019-04-27T21:51:11.830Z,101056.11
2019-04-27T21:56:17.553Z,101063.64
2019-04-27T22:01:26.701Z,101063.58
2019-04-27T22:06:32.260Z,101066.95
2019-04-27T22:11:37.905Z,101075.09
2019-04-27T22:16:43.579Z,101068.65
2019-04-27T22:21:49.409Z,101078.98
2019-04-27T22:26:54.934Z,101074.35
2019-04-27T22:32:01.677Z,101075.69
2019-04-27T22:37:07.360Z,101076.45
2019-04-27T22:42:31.275Z,101080.99
2019-04-27T22:47:36.928Z,101089.34
2019-04-27T22:52:42.460Z,101091.60
2019-04-27T22:58:16.059Z,101090.70
2019-04-27T23:03:26.449Z,101093.25
2019-04-27T23:08:32.093Z,101093.92
2019-04-27T23:13:37.575Z,101091.97
2019-04-27T23:18:43.121Z,101094.60
2019-04-27T23:23:48.598Z,101094.65
2019-04-27T23:28:54.089Z,101096.89
2019-04-27T23:33:59.657Z,101098.75
2019-04-27T23:39:06.407Z,101099.70
2019-04-27T23:44:12.073Z,101103.77
2019-04-27T23:49:17.527Z,101097.92
2019-04-27T23:54:22.986Z,101095.70
2019-04-27T23:59:28.498Z,101089.21
